PWSweather.com
Personal Weather Stations
Station Observations
KJ4AJP
Beautiful Downtown Gardner, Martin, TN 38237

Beautiful Downtown GardnerMartin, TN 38237

Lat: 36.358, Lon: -88.8994

Elevation: 384.3

Station Type: TP1080WC

http://weather.mambm.com/

High Low Average
Temperature 40.5°F4.7°C 29.5°F-1.4°C 35.9°F2.2°C
Dew Point 36.7°F2.6°C 23.5°F-4.7°C 31.9°F-0.1°C
Winds 9.2 mph 14.8 kmh Calm Calm 4.0 mph W6.4 kmh W
Wind Gusts 18.3 mph29.5 kmh 1.6 mph2.6 kmh 11.0 mph17.7 kmh
Humidity 94% 78% 85%
Pressure 30.50 in1032.8 mb 30.23 in1023.7 mb -
Precipitation 0.00 in0.0 mm - -
Hour Temp Dew Point Humidity Winds Wind Gusts Pressure Precip Precip Rate Daily Precip Total
12:00 AM 36.9°F2.7°C 33.6°F0.9°C 88% 1.6 mph N2.6 kmh N 3.1 mph5.0 kmh 30.27 in1025.1 mb 0.00 in0.0 mm 0.00 in0.0 mm 0.02 in0.5 mm
12:15 AM 37.0°F2.8°C 33.8°F1.0°C 88% 2.2 mph N3.5 kmh N 3.8 mph6.1 kmh 30.27 in1025.1 mb 0.00 in0.0 mm 0.00 in0.0 mm 0.02 in0.5 mm
12:30 AM 37.4°F3.0°C 33.9°F1.1°C 87% 1.6 mph N2.6 kmh N 3.1 mph5.0 kmh 30.27 in1025.1 mb 0.00 in0.0 mm 0.00 in0.0 mm 0.02 in0.5 mm
12:45 AM 37.8°F3.2°C 34.2°F1.2°C 87% 0.7 mph N1.1 kmh N 3.1 mph5.0 kmh 30.27 in1025.1 mb 0.00 in0.0 mm 0.00 in0.0 mm 0.02 in0.5 mm
01:00 AM 37.8°F3.2°C 34.2°F1.2°C 87% 0.7 mph N1.1 kmh N 3.1 mph5.0 kmh 30.27 in1025.1 mb 0.00 in0.0 mm 0.00 in0.0 mm 0.00 in0.0 mm
01:15 AM 37.6°F3.1°C 34.1°F1.2°C 87% 0.7 mph N1.1 kmh N 2.2 mph3.5 kmh 30.27 in1025.1 mb 0.00 in0.0 mm 0.00 in0.0 mm 0.00 in0.0 mm
01:30 AM 37.6°F3.1°C 34.4°F1.3°C 88% 1.6 mph NE2.6 kmh NE 3.1 mph5.0 kmh 30.26 in1024.7 mb 0.00 in0.0 mm 0.00 in0.0 mm 0.00 in0.0 mm
01:45 AM 38.1°F3.4°C 34.9°F1.6°C 88% 1.6 mph N2.6 kmh N 3.1 mph5.0 kmh 30.26 in1024.7 mb 0.00 in0.0 mm 0.00 in0.0 mm 0.00 in0.0 mm
02:00 AM 39.0°F3.9°C 35.8°F2.1°C 88% 0.7 mph NNW1.1 kmh NNW 2.2 mph3.5 kmh 30.26 in1024.7 mb 0.00 in0.0 mm 0.00 in0.0 mm 0.00 in0.0 mm
02:15 AM 39.6°F4.2°C 36.3°F2.4°C 88% Calm Calm 3.8 mph6.1 kmh 30.25 in1024.4 mb 0.00 in0.0 mm 0.00 in0.0 mm 0.00 in0.0 mm
02:30 AM 39.9°F4.4°C 36.4°F2.4°C 87% Calm Calm 2.2 mph3.5 kmh 30.25 in1024.4 mb 0.00 in0.0 mm 0.00 in0.0 mm 0.00 in0.0 mm
02:45 AM 40.3°F4.6°C 36.7°F2.6°C 87% Calm Calm 3.1 mph5.0 kmh 30.25 in1024.4 mb 0.00 in0.0 mm 0.00 in0.0 mm 0.00 in0.0 mm
03:00 AM 40.5°F4.7°C 36.6°F2.6°C 86% Calm Calm 2.2 mph3.5 kmh 30.25 in1024.4 mb 0.00 in0.0 mm 0.00 in0.0 mm 0.00 in0.0 mm
03:15 AM 40.3°F4.6°C 36.4°F2.4°C 86% Calm Calm 1.6 mph2.6 kmh 30.25 in1024.4 mb 0.00 in0.0 mm 0.00 in0.0 mm 0.00 in0.0 mm
03:30 AM 39.9°F4.4°C 36.4°F2.4°C 87% 0.7 mph NNW1.1 kmh NNW 2.2 mph3.5 kmh 30.25 in1024.4 mb 0.00 in0.0 mm 0.00 in0.0 mm 0.00 in0.0 mm
03:45 AM 39.4°F4.1°C 36.1°F2.3°C 88% 1.6 mph N2.6 kmh N 3.1 mph5.0 kmh 30.24 in1024.0 mb 0.00 in0.0 mm 0.00 in0.0 mm 0.00 in0.0 mm
04:00 AM 39.6°F4.2°C 36.6°F2.6°C 89% 1.6 mph N2.6 kmh N 5.4 mph8.7 kmh 30.23 in1023.7 mb 0.00 in0.0 mm 0.00 in0.0 mm 0.00 in0.0 mm
04:15 AM 39.7°F4.3°C 36.2°F2.3°C 87% 3.8 mph N6.1 kmh N 6.0 mph9.7 kmh 30.23 in1023.7 mb 0.00 in0.0 mm 0.00 in0.0 mm 0.00 in0.0 mm
04:30 AM 40.3°F4.6°C 36.4°F2.4°C 86% 3.1 mph N5.0 kmh N 6.9 mph11.1 kmh 30.23 in1023.7 mb 0.00 in0.0 mm 0.00 in0.0 mm 0.00 in0.0 mm
04:45 AM 40.5°F4.7°C 36.0°F2.2°C 84% 1.6 mph N2.6 kmh N 4.5 mph7.2 kmh 30.23 in1023.7 mb 0.00 in0.0 mm 0.00 in0.0 mm 0.00 in0.0 mm
05:00 AM 40.1°F4.5°C 35.7°F2.1°C 84% 1.6 mph N2.6 kmh N 5.4 mph8.7 kmh 30.23 in1023.7 mb 0.00 in0.0 mm 0.00 in0.0 mm 0.00 in0.0 mm
05:15 AM 39.6°F4.2°C 35.1°F1.7°C 84% 0.7 mph NNW1.1 kmh NNW 3.8 mph6.1 kmh 30.23 in1023.7 mb 0.00 in0.0 mm 0.00 in0.0 mm 0.00 in0.0 mm
05:30 AM 38.7°F3.7°C 34.8°F1.6°C 86% 1.6 mph WNW2.6 kmh WNW 3.1 mph5.0 kmh 30.24 in1024.0 mb 0.00 in0.0 mm 0.00 in0.0 mm 0.00 in0.0 mm
05:45 AM 37.9°F3.3°C 34.1°F1.2°C 86% 0.7 mph WNW1.1 kmh WNW 3.1 mph5.0 kmh 30.25 in1024.4 mb 0.00 in0.0 mm 0.00 in0.0 mm 0.00 in0.0 mm
06:00 AM 37.4°F3.0°C 33.9°F1.1°C 87% 1.6 mph NW2.6 kmh NW 3.1 mph5.0 kmh 30.25 in1024.4 mb 0.00 in0.0 mm 0.00 in0.0 mm 0.00 in0.0 mm
06:15 AM 37.2°F2.9°C 33.7°F0.9°C 87% 1.6 mph NNW2.6 kmh NNW 3.8 mph6.1 kmh 30.26 in1024.7 mb 0.00 in0.0 mm 0.00 in0.0 mm 0.00 in0.0 mm
06:30 AM 37.4°F3.0°C 34.2°F1.2°C 88% 2.2 mph N3.5 kmh N 10.7 mph17.2 kmh 30.26 in1024.7 mb 0.00 in0.0 mm 0.00 in0.0 mm 0.00 in0.0 mm
06:45 AM 38.1°F3.4°C 34.9°F1.6°C 88% 9.2 mph NNW14.8 kmh NNW 16.8 mph27.0 kmh 30.27 in1025.1 mb 0.00 in0.0 mm 0.00 in0.0 mm 0.00 in0.0 mm
07:00 AM 38.7°F3.7°C 35.4°F1.9°C 88% 8.3 mph N13.4 kmh N 15.2 mph24.5 kmh 30.26 in1024.7 mb 0.00 in0.0 mm 0.00 in0.0 mm 0.00 in0.0 mm
07:15 AM 38.5°F3.6°C 35.2°F1.8°C 88% 6.0 mph N9.7 kmh N 13.6 mph21.9 kmh 30.27 in1025.1 mb 0.00 in0.0 mm 0.00 in0.0 mm 0.00 in0.0 mm
07:30 AM 37.9°F3.3°C 35.0°F1.7°C 89% 4.5 mph N7.2 kmh N 13.0 mph20.9 kmh 30.28 in1025.4 mb 0.00 in0.0 mm 0.00 in0.0 mm 0.00 in0.0 mm
07:45 AM 37.4°F3.0°C 34.7°F1.5°C 90% 4.5 mph N7.2 kmh N 9.8 mph15.8 kmh 30.29 in1025.7 mb 0.00 in0.0 mm 0.00 in0.0 mm 0.00 in0.0 mm
08:00 AM 36.7°F2.6°C 34.3°F1.3°C 91% 6.9 mph N11.1 kmh N 15.9 mph25.6 kmh 30.30 in1026.1 mb 0.00 in0.0 mm 0.00 in0.0 mm 0.00 in0.0 mm
08:15 AM 36.3°F2.4°C 34.2°F1.2°C 92% 6.9 mph N11.1 kmh N 14.5 mph23.3 kmh 30.30 in1026.1 mb 0.00 in0.0 mm 0.00 in0.0 mm 0.00 in0.0 mm
08:30 AM 36.0°F2.2°C 34.1°F1.2°C 93% 3.8 mph N6.1 kmh N 10.7 mph17.2 kmh 30.31 in1026.4 mb 0.00 in0.0 mm 0.00 in0.0 mm 0.00 in0.0 mm
08:45 AM 36.0°F2.2°C 34.1°F1.2°C 93% 5.4 mph N8.7 kmh N 10.7 mph17.2 kmh 30.32 in1026.8 mb 0.00 in0.0 mm 0.00 in0.0 mm 0.00 in0.0 mm
09:00 AM 36.5°F2.5°C 34.9°F1.6°C 94% 6.0 mph N9.7 kmh N 14.5 mph23.3 kmh 30.33 in1027.1 mb 0.00 in0.0 mm 0.00 in0.0 mm 0.00 in0.0 mm
09:15 AM 36.5°F2.5°C 34.9°F1.6°C 94% 7.6 mph N12.2 kmh N 13.6 mph21.9 kmh 30.33 in1027.1 mb 0.00 in0.0 mm 0.00 in0.0 mm 0.00 in0.0 mm
09:30 AM 37.2°F2.9°C 35.7°F2.1°C 94% 7.6 mph N12.2 kmh N 13.0 mph20.9 kmh 30.34 in1027.4 mb 0.00 in0.0 mm 0.00 in0.0 mm 0.00 in0.0 mm
09:45 AM 37.4°F3.0°C 35.6°F2.0°C 93% 1.6 mph N2.6 kmh N 15.9 mph25.6 kmh 30.34 in1027.4 mb 0.00 in0.0 mm 0.00 in0.0 mm 0.00 in0.0 mm
10:00 AM 37.8°F3.2°C 35.9°F2.2°C 93% 6.0 mph N9.7 kmh N 15.9 mph25.6 kmh 30.35 in1027.8 mb 0.00 in0.0 mm 0.00 in0.0 mm 0.00 in0.0 mm
10:15 AM 37.4°F3.0°C 35.3°F1.8°C 92% 3.1 mph N5.0 kmh N 14.5 mph23.3 kmh 30.36 in1028.1 mb 0.00 in0.0 mm 0.00 in0.0 mm 0.00 in0.0 mm
10:30 AM 37.2°F2.9°C 35.1°F1.7°C 92% 3.1 mph NNW5.0 kmh NNW 9.8 mph15.8 kmh 30.36 in1028.1 mb 0.00 in0.0 mm 0.00 in0.0 mm 0.00 in0.0 mm
10:45 AM 36.9°F2.7°C 34.5°F1.4°C 91% 2.2 mph N3.5 kmh N 13.6 mph21.9 kmh 30.37 in1028.4 mb 0.00 in0.0 mm 0.00 in0.0 mm 0.00 in0.0 mm
11:00 AM 37.0°F2.8°C 34.7°F1.5°C 91% 7.6 mph NNW12.2 kmh NNW 11.4 mph18.3 kmh 30.37 in1028.4 mb 0.00 in0.0 mm 0.00 in0.0 mm 0.00 in0.0 mm
11:15 AM 37.8°F3.2°C 35.1°F1.7°C 90% 6.0 mph N9.7 kmh N 14.5 mph23.3 kmh 30.37 in1028.4 mb 0.00 in0.0 mm 0.00 in0.0 mm 0.00 in0.0 mm
11:30 AM 38.8°F3.8°C 35.3°F1.8°C 87% 7.6 mph N12.2 kmh N 17.4 mph28.0 kmh 30.38 in1028.8 mb 0.00 in0.0 mm 0.00 in0.0 mm 0.00 in0.0 mm
11:45 AM 39.4°F4.1°C 35.8°F2.1°C 87% 6.0 mph N9.7 kmh N 12.1 mph19.5 kmh 30.36 in1028.1 mb 0.00 in0.0 mm 0.00 in0.0 mm 0.00 in0.0 mm
12:00 PM 40.1°F4.5°C 36.0°F2.2°C 85% 4.5 mph NNW7.2 kmh NNW 15.2 mph24.5 kmh 30.37 in1028.4 mb 0.00 in0.0 mm 0.00 in0.0 mm 0.00 in0.0 mm
12:15 PM 39.6°F4.2°C 35.4°F1.9°C 85% 3.1 mph NNW5.0 kmh NNW 10.7 mph17.2 kmh 30.37 in1028.4 mb 0.00 in0.0 mm 0.00 in0.0 mm 0.00 in0.0 mm
12:30 PM 38.8°F3.8°C 34.7°F1.5°C 85% 4.5 mph N7.2 kmh N 15.9 mph25.6 kmh 30.38 in1028.8 mb 0.00 in0.0 mm 0.00 in0.0 mm 0.00 in0.0 mm
12:45 PM 38.1°F3.4°C 34.0°F1.1°C 85% 3.8 mph NW6.1 kmh NW 13.6 mph21.9 kmh 30.37 in1028.4 mb 0.00 in0.0 mm 0.00 in0.0 mm 0.00 in0.0 mm
01:00 PM 37.6°F3.1°C 33.5°F0.8°C 85% 6.9 mph NNW11.1 kmh NNW 13.6 mph21.9 kmh 30.36 in1028.1 mb 0.00 in0.0 mm 0.00 in0.0 mm 0.00 in0.0 mm
01:15 PM 37.2°F2.9°C 33.1°F0.6°C 85% 6.0 mph N9.7 kmh N 17.4 mph28.0 kmh 30.36 in1028.1 mb 0.00 in0.0 mm 0.00 in0.0 mm 0.00 in0.0 mm
01:30 PM 37.0°F2.8°C 33.0°F0.6°C 85% 3.8 mph N6.1 kmh N 13.6 mph21.9 kmh 30.36 in1028.1 mb 0.00 in0.0 mm 0.00 in0.0 mm 0.00 in0.0 mm
01:45 PM 36.3°F2.4°C 32.3°F0.2°C 85% 6.0 mph NNW9.7 kmh NNW 18.3 mph29.5 kmh 30.36 in1028.1 mb 0.00 in0.0 mm 0.00 in0.0 mm 0.00 in0.0 mm
02:00 PM 36.0°F2.2°C 32.2°F0.1°C 86% 2.2 mph NNW3.5 kmh NNW 13.6 mph21.9 kmh 30.35 in1027.8 mb 0.00 in0.0 mm 0.00 in0.0 mm 0.00 in0.0 mm
02:15 PM 36.0°F2.2°C 32.2°F0.1°C 86% 3.8 mph NNW6.1 kmh NNW 16.8 mph27.0 kmh 30.36 in1028.1 mb 0.00 in0.0 mm 0.00 in0.0 mm 0.00 in0.0 mm
02:30 PM 36.0°F2.2°C 31.9°F-0.1°C 85% 3.8 mph NW6.1 kmh NW 15.2 mph24.5 kmh 30.35 in1027.8 mb 0.00 in0.0 mm 0.00 in0.0 mm 0.00 in0.0 mm
02:45 PM 35.8°F2.1°C 31.7°F-0.2°C 85% 5.4 mph N8.7 kmh N 10.7 mph17.2 kmh 30.35 in1027.8 mb 0.00 in0.0 mm 0.00 in0.0 mm 0.00 in0.0 mm
03:00 PM 35.6°F2.0°C 31.5°F-0.3°C 85% 6.0 mph NNW9.7 kmh NNW 10.7 mph17.2 kmh 30.36 in1028.1 mb 0.00 in0.0 mm 0.00 in0.0 mm 0.00 in0.0 mm
03:15 PM 35.4°F1.9°C 31.4°F-0.3°C 85% 3.1 mph NW5.0 kmh NW 10.7 mph17.2 kmh 30.36 in1028.1 mb 0.00 in0.0 mm 0.00 in0.0 mm 0.00 in0.0 mm
03:30 PM 35.1°F1.7°C 30.7°F-0.7°C 84% 3.1 mph NW5.0 kmh NW 13.0 mph20.9 kmh 30.37 in1028.4 mb 0.00 in0.0 mm 0.00 in0.0 mm 0.00 in0.0 mm
03:45 PM 35.1°F1.7°C 30.4°F-0.9°C 83% 6.9 mph NNW11.1 kmh NNW 14.5 mph23.3 kmh 30.37 in1028.4 mb 0.00 in0.0 mm 0.00 in0.0 mm 0.00 in0.0 mm
04:00 PM 34.9°F1.6°C 30.3°F-0.9°C 83% 0.7 mph NW1.1 kmh NW 10.7 mph17.2 kmh 30.37 in1028.4 mb 0.00 in0.0 mm 0.00 in0.0 mm 0.00 in0.0 mm
04:15 PM 34.7°F1.5°C 30.1°F-1.1°C 83% 2.2 mph NW3.5 kmh NW 8.3 mph13.4 kmh 30.38 in1028.8 mb 0.00 in0.0 mm 0.00 in0.0 mm 0.00 in0.0 mm
04:30 PM 34.5°F1.4°C 29.9°F-1.2°C 83% 3.8 mph NNW6.1 kmh NNW 6.9 mph11.1 kmh 30.38 in1028.8 mb 0.00 in0.0 mm 0.00 in0.0 mm 0.00 in0.0 mm
04:45 PM 34.5°F1.4°C 29.9°F-1.2°C 83% 3.1 mph NNW5.0 kmh NNW 8.3 mph13.4 kmh 30.38 in1028.8 mb 0.00 in0.0 mm 0.00 in0.0 mm 0.00 in0.0 mm
05:00 PM 34.2°F1.2°C 29.6°F-1.3°C 83% 2.2 mph NNW3.5 kmh NNW 13.6 mph21.9 kmh 30.39 in1029.1 mb 0.00 in0.0 mm 0.00 in0.0 mm 0.00 in0.0 mm
05:15 PM 34.2°F1.2°C 29.6°F-1.3°C 83% 4.5 mph NW7.2 kmh NW 8.3 mph13.4 kmh 30.39 in1029.1 mb 0.00 in0.0 mm 0.00 in0.0 mm 0.00 in0.0 mm
05:30 PM 34.0°F1.1°C 29.1°F-1.6°C 82% 2.2 mph N3.5 kmh N 10.7 mph17.2 kmh 30.40 in1029.5 mb 0.00 in0.0 mm 0.00 in0.0 mm 0.00 in0.0 mm
05:45 PM 33.8°F1.0°C 29.2°F-1.6°C 83% 4.5 mph NW7.2 kmh NW 7.6 mph12.2 kmh 30.41 in1029.8 mb 0.00 in0.0 mm 0.00 in0.0 mm 0.00 in0.0 mm
06:00 PM 33.6°F0.9°C 29.0°F-1.7°C 83% 4.5 mph N7.2 kmh N 12.1 mph19.5 kmh 30.41 in1029.8 mb 0.00 in0.0 mm 0.00 in0.0 mm 0.00 in0.0 mm
06:15 PM 33.4°F0.8°C 28.8°F-1.8°C 83% 3.1 mph NW5.0 kmh NW 9.2 mph14.8 kmh 30.42 in1030.1 mb 0.00 in0.0 mm 0.00 in0.0 mm 0.00 in0.0 mm
06:30 PM 33.3°F0.7°C 28.7°F-1.8°C 83% 2.2 mph NNW3.5 kmh NNW 6.9 mph11.1 kmh 30.42 in1030.1 mb 0.00 in0.0 mm 0.00 in0.0 mm 0.00 in0.0 mm
06:45 PM 33.1°F0.6°C 28.5°F-1.9°C 83% 4.5 mph NNW7.2 kmh NNW 9.2 mph14.8 kmh 30.42 in1030.1 mb 0.00 in0.0 mm 0.00 in0.0 mm 0.00 in0.0 mm
07:00 PM 33.1°F0.6°C 28.2°F-2.1°C 82% 3.1 mph NNW5.0 kmh NNW 13.0 mph20.9 kmh 30.44 in1030.8 mb 0.00 in0.0 mm 0.00 in0.0 mm 0.00 in0.0 mm
07:15 PM 32.9°F0.5°C 28.0°F-2.2°C 82% 3.8 mph NNW6.1 kmh NNW 13.0 mph20.9 kmh 30.44 in1030.8 mb 0.00 in0.0 mm 0.00 in0.0 mm 0.00 in0.0 mm
07:30 PM 32.9°F0.5°C 28.0°F-2.2°C 82% 3.8 mph N6.1 kmh N 10.7 mph17.2 kmh 30.45 in1031.2 mb 0.00 in0.0 mm 0.00 in0.0 mm 0.00 in0.0 mm
07:45 PM 32.9°F0.5°C 28.3°F-2.1°C 83% 2.2 mph N3.5 kmh N 12.1 mph19.5 kmh 30.46 in1031.5 mb 0.00 in0.0 mm 0.00 in0.0 mm 0.00 in0.0 mm
08:00 PM 32.7°F0.4°C 27.6°F-2.4°C 81% 1.6 mph NNW2.6 kmh NNW 13.0 mph20.9 kmh 30.46 in1031.5 mb 0.00 in0.0 mm 0.00 in0.0 mm 0.00 in0.0 mm
08:15 PM 32.7°F0.4°C 27.9°F-2.3°C 82% 4.5 mph NNW7.2 kmh NNW 9.2 mph14.8 kmh 30.45 in1031.2 mb 0.00 in0.0 mm 0.00 in0.0 mm 0.00 in0.0 mm
08:30 PM 32.7°F0.4°C 27.9°F-2.3°C 82% 6.0 mph N9.7 kmh N 15.2 mph24.5 kmh 30.46 in1031.5 mb 0.00 in0.0 mm 0.00 in0.0 mm 0.00 in0.0 mm
08:45 PM 32.5°F0.3°C 27.7°F-2.4°C 82% 8.3 mph N13.4 kmh N 16.8 mph27.0 kmh 30.46 in1031.5 mb 0.00 in0.0 mm 0.00 in0.0 mm 0.00 in0.0 mm
09:00 PM 32.2°F0.1°C 27.0°F-2.8°C 81% 6.9 mph N11.1 kmh N 13.6 mph21.9 kmh 30.47 in1031.8 mb 0.00 in0.0 mm 0.00 in0.0 mm 0.00 in0.0 mm
09:15 PM 32.0°F0.0°C 26.9°F-2.8°C 81% 9.2 mph NNE14.8 kmh NNE 14.5 mph23.3 kmh 30.47 in1031.8 mb 0.00 in0.0 mm 0.00 in0.0 mm 0.00 in0.0 mm
09:30 PM 31.8°F-0.1°C 26.7°F-2.9°C 81% 9.2 mph N14.8 kmh N 15.2 mph24.5 kmh 30.47 in1031.8 mb 0.00 in0.0 mm 0.00 in0.0 mm 0.00 in0.0 mm
09:45 PM 31.6°F-0.2°C 26.5°F-3.1°C 81% 4.5 mph N7.2 kmh N 14.5 mph23.3 kmh 30.47 in1031.8 mb 0.00 in0.0 mm 0.00 in0.0 mm 0.00 in0.0 mm
10:00 PM 31.6°F-0.2°C 26.5°F-3.1°C 81% 6.0 mph N9.7 kmh N 9.8 mph15.8 kmh 30.48 in1032.2 mb 0.00 in0.0 mm 0.00 in0.0 mm 0.00 in0.0 mm
10:15 PM 31.5°F-0.3°C 26.3°F-3.2°C 81% 5.4 mph N8.7 kmh N 9.8 mph15.8 kmh 30.48 in1032.2 mb 0.00 in0.0 mm 0.00 in0.0 mm 0.00 in0.0 mm
10:30 PM 31.5°F-0.3°C 26.3°F-3.2°C 81% 3.1 mph NNW5.0 kmh NNW 12.1 mph19.5 kmh 30.49 in1032.5 mb 0.00 in0.0 mm 0.00 in0.0 mm 0.00 in0.0 mm
10:45 PM 31.5°F-0.3°C 26.3°F-3.2°C 81% 2.2 mph N3.5 kmh N 6.0 mph9.7 kmh 30.48 in1032.2 mb 0.00 in0.0 mm 0.00 in0.0 mm 0.00 in0.0 mm
11:00 PM 31.3°F-0.4°C 26.1°F-3.3°C 81% 3.8 mph N6.1 kmh N 12.1 mph19.5 kmh 30.50 in1032.8 mb 0.00 in0.0 mm 0.00 in0.0 mm 0.00 in0.0 mm
11:15 PM 31.1°F-0.5°C 25.7°F-3.5°C 80% 4.5 mph N7.2 kmh N 9.8 mph15.8 kmh 30.49 in1032.5 mb 0.00 in0.0 mm 0.00 in0.0 mm 0.00 in0.0 mm
11:30 PM 30.9°F-0.6°C 25.5°F-3.6°C 80% 6.9 mph N11.1 kmh N 12.1 mph19.5 kmh 30.49 in1032.5 mb 0.00 in0.0 mm 0.00 in0.0 mm 0.00 in0.0 mm
11:45 PM 30.6°F-0.8°C 24.5°F-4.2°C 78% 3.8 mph N6.1 kmh N 15.2 mph24.5 kmh 30.50 in1032.8 mb 0.00 in0.0 mm 0.00 in0.0 mm 0.00 in0.0 mm